Time;durP1;ratioP1;P1;durP2;ratioP2;P2;SDS_P1;SDS_P2;PMS_P1;PMS_P2;Temp;Humidity;BMP_temperature;BMP_pressure;BME280_temperature;BME280_humidity;BME280_pressure;Samples;Min_cycle;Max_cycle;Signal;HPM_P1;HPM_P2
2024/04/09 00:00:45;;;;;;;6.80;4.93;;;;;;;;;;5411318;26;20000;-68
2024/04/09 00:03:10;;;;;;;7.45;4.90;;;;;;;;;;5411131;26;19999;-68
2024/04/09 00:05:39;;;;;;;5.57;4.50;;;;;;;;;;5380367;26;20424;-69
2024/04/09 00:08:10;;;;;;;8.25;4.55;;;;;;;;;;5380256;26;20011;-70
2024/04/09 00:10:37;;;;;;;8.70;4.65;;;;;;;;;;5380410;26;20076;-69
2024/04/09 00:13:06;;;;;;;6.78;4.25;;;;;;;;;;5380106;26;20729;-68
2024/04/09 00:15:33;;;;;;;6.57;3.95;;;;;;;;;;5351882;26;20694;-69
2024/04/09 00:18:14;;;;;;;6.30;4.68;;;;;;;;;;5381378;26;20004;-68
2024/04/09 00:20:42;;;;;;;7.43;4.35;;;;;;;;;;5380655;26;20174;-68
2024/04/09 00:23:09;;;;;;;7.10;3.90;;;;;;;;;;5410530;26;20450;-68
2024/04/09 00:25:37;;;;;;;6.95;3.92;;;;;;;;;;5410584;26;19996;-70
2024/04/09 00:28:03;;;;;;;5.32;3.30;;;;;;;;;;5379674;26;20000;-69
2024/04/09 00:30:29;;;;;;;6.18;4.25;;;;;;;;;;5412463;26;20000;-70
2024/04/09 00:32:54;;;;;;;5.60;3.63;;;;;;;;;;5414695;26;20018;-68
2024/04/09 00:35:21;;;;;;;5.25;3.70;;;;;;;;;;5382393;26;20046;-70
2024/04/09 00:37:51;;;;;;;6.57;3.70;;;;;;;;;;5382708;26;20000;-69
2024/04/09 00:40:19;;;;;;;5.13;3.65;;;;;;;;;;5382757;26;20018;-68
2024/04/09 00:42:49;;;;;;;5.25;3.70;;;;;;;;;;5382738;26;20003;-69
2024/04/09 00:45:17;;;;;;;9.23;3.78;;;;;;;;;;5382162;26;20019;-69
2024/04/09 00:47:46;;;;;;;10.48;3.67;;;;;;;;;;5382141;26;20003;-68
2024/04/09 00:50:12;;;;;;;10.13;3.78;;;;;;;;;;5381807;26;20026;-69
2024/04/09 00:52:39;;;;;;;6.25;3.83;;;;;;;;;;5413636;26;20011;-68
2024/04/09 00:55:08;;;;;;;5.00;3.60;;;;;;;;;;5382320;26;20003;-71
2024/04/09 00:57:35;;;;;;;4.65;3.42;;;;;;;;;;5413435;26;20023;-69
2024/04/09 01:00:05;;;;;;;5.05;3.38;;;;;;;;;;5413376;26;19999;-69
2024/04/09 01:02:32;;;;;;;11.48;4.00;;;;;;;;;;5381724;26;20585;-68
2024/04/09 01:04:58;;;;;;;5.97;3.33;;;;;;;;;;5382056;26;20013;-68
2024/04/09 01:07:23;;;;;;;4.45;3.10;;;;;;;;;;5413297;26;19999;-70
2024/04/09 01:09:49;;;;;;;5.03;4.28;;;;;;;;;;5413787;26;20004;-67
2024/04/09 01:12:15;;;;;;;5.00;3.75;;;;;;;;;;5382093;26;20000;-69
2024/04/09 01:14:40;;;;;;;8.52;3.55;;;;;;;;;;5381759;26;20792;-69
2024/04/09 01:17:06;;;;;;;4.20;3.38;;;;;;;;;;5413460;26;20019;-69
2024/04/09 01:19:31;;;;;;;4.60;3.20;;;;;;;;;;5413395;26;19999;-69
2024/04/09 01:21:57;;;;;;;8.73;3.47;;;;;;;;;;5382055;26;20013;-70
2024/04/09 01:24:24;;;;;;;5.35;3.45;;;;;;;;;;5413080;26;20015;-68
2024/04/09 01:26:51;;;;;;;4.00;3.42;;;;;;;;;;5381823;26;19996;-68
2024/04/09 01:29:17;;;;;;;5.95;3.47;;;;;;;;;;5413139;26;20047;-68
2024/04/09 01:31:43;;;;;;;3.60;3.13;;;;;;;;;;5381814;26;20444;-68
2024/04/09 01:34:09;;;;;;;7.20;4.13;;;;;;;;;;5381669;26;20011;-70
2024/04/09 01:36:38;;;;;;;3.60;3.30;;;;;;;;;;5413135;26;20000;-69
2024/04/09 01:39:08;;;;;;;5.80;3.72;;;;;;;;;;5412998;26;20010;-69
2024/04/09 01:41:36;;;;;;;5.10;3.55;;;;;;;;;;5380707;26;20102;-68
2024/04/09 01:44:02;;;;;;;4.03;3.63;;;;;;;;;;5381752;26;20046;-69
2024/04/09 01:46:28;;;;;;;4.63;3.33;;;;;;;;;;5413215;26;20043;-68
2024/04/09 01:48:53;;;;;;;8.60;4.07;;;;;;;;;;5387842;26;20004;-69
2024/04/09 01:51:19;;;;;;;7.95;3.80;;;;;;;;;;5346458;26;20069;-68
2024/04/09 01:53:48;;;;;;;3.85;3.03;;;;;;;;;;5346534;26;20000;-69
2024/04/09 01:56:15;;;;;;;7.25;3.72;;;;;;;;;;5377207;26;20015;-68
2024/04/09 01:58:41;;;;;;;12.75;4.07;;;;;;;;;;5377459;26;20000;-67
2024/04/09 02:01:09;;;;;;;17.45;9.38;;;;;;;;;;5377759;26;20004;-69
2024/04/09 02:03:36;;;;;;;8.05;6.05;;;;;;;;;;5346709;26;20098;-68
2024/04/09 02:06:02;;;;;;;5.53;4.10;;;;;;;;;;5378112;26;20004;-69
2024/04/09 02:08:28;;;;;;;6.80;3.50;;;;;;;;;;5377639;26;20014;-69
2024/04/09 02:10:54;;;;;;;9.80;3.72;;;;;;;;;;5346625;26;20525;-69
2024/04/09 02:13:19;;;;;;;8.60;3.40;;;;;;;;;;5346327;26;20007;-68
2024/04/09 02:15:45;;;;;;;6.00;3.28;;;;;;;;;;5346662;26;20001;-70
2024/04/09 02:18:10;;;;;;;8.23;3.67;;;;;;;;;;5377353;26;20004;-68
2024/04/09 02:20:38;;;;;;;7.78;3.92;;;;;;;;;;5346694;26;20100;-70
2024/04/09 02:23:04;;;;;;;3.83;3.38;;;;;;;;;;5378071;26;20001;-69
2024/04/09 02:25:30;;;;;;;12.48;3.97;;;;;;;;;;5348535;26;20077;-70
2024/04/09 02:27:56;;;;;;;6.00;3.58;;;;;;;;;;5350810;26;20063;-67
2024/04/09 02:30:21;;;;;;;4.40;3.30;;;;;;;;;;5349205;26;20004;-69
2024/04/09 02:32:47;;;;;;;8.15;4.25;;;;;;;;;;5380978;26;20519;-70
2024/04/09 02:35:12;;;;;;;15.68;4.18;;;;;;;;;;5379683;26;20000;-70
2024/04/09 02:37:39;;;;;;;7.97;4.07;;;;;;;;;;5346428;26;20004;-68
2024/04/09 02:40:05;;;;;;;9.80;4.47;;;;;;;;;;5317480;26;20000;-69
2024/04/09 02:42:30;;;;;;;6.55;4.60;;;;;;;;;;5345933;26;20448;-68
2024/04/09 02:44:56;;;;;;;7.93;4.28;;;;;;;;;;5346065;26;20010;-67
2024/04/09 02:47:23;;;;;;;5.82;3.90;;;;;;;;;;5347869;26;20423;-68
2024/04/09 02:49:48;;;;;;;10.68;4.45;;;;;;;;;;5414943;26;20002;-69
2024/04/09 02:52:13;;;;;;;5.75;3.95;;;;;;;;;;5416546;26;20788;-69
2024/04/09 02:54:39;;;;;;;6.35;4.43;;;;;;;;;;5448463;26;20116;-69
2024/04/09 02:57:05;;;;;;;4.50;3.70;;;;;;;;;;5418095;26;20013;-70
2024/04/09 02:59:32;;;;;;;8.52;3.63;;;;;;;;;;5416521;26;20009;-70
2024/04/09 03:01:58;;;;;;;5.93;4.75;;;;;;;;;;5415676;26;20013;-68
2024/04/09 03:04:23;;;;;;;5.25;3.75;;;;;;;;;;5415264;26;19999;-68
2024/04/09 03:06:50;;;;;;;14.95;4.90;;;;;;;;;;5415600;26;20461;-68
2024/04/09 03:09:16;;;;;;;11.52;4.78;;;;;;;;;;5415724;26;20003;-68
2024/04/09 03:11:42;;;;;;;9.95;4.45;;;;;;;;;;5415869;26;20014;-68
2024/04/09 03:14:11;;;;;;;8.90;4.68;;;;;;;;;;5415208;26;20075;-69
2024/04/09 03:16:37;;;;;;;9.18;4.82;;;;;;;;;;5447023;26;20003;-68
2024/04/09 03:19:03;;;;;;;10.32;4.95;;;;;;;;;;5447075;26;20409;-69
2024/04/09 03:21:29;;;;;;;12.75;4.72;;;;;;;;;;5414842;26;20565;-68
2024/04/09 03:23:55;;;;;;;13.02;4.68;;;;;;;;;;5415601;26;20037;-68
2024/04/09 03:26:21;;;;;;;8.18;4.90;;;;;;;;;;5446854;26;19999;-70
2024/04/09 03:28:46;;;;;;;11.55;4.82;;;;;;;;;;5446986;26;20003;-68
2024/04/09 03:31:12;;;;;;;8.65;5.90;;;;;;;;;;5415524;26;20003;-69
2024/04/09 03:33:38;;;;;;;8.73;5.32;;;;;;;;;;5414957;26;20075;-68
2024/04/09 03:36:05;;;;;;;8.30;4.50;;;;;;;;;;5476061;26;20002;-69
2024/04/09 03:38:31;;;;;;;7.82;4.78;;;;;;;;;;5446888;26;19998;-69
2024/04/09 03:41:06;;;;;;;4.95;4.30;;;;;;;;;;5415264;26;20010;-68
2024/04/09 03:43:31;;;;;;;8.05;4.50;;;;;;;;;;5415332;26;20014;-69
2024/04/09 03:46:10;;;;;;;5.30;4.43;;;;;;;;;;5447257;26;19995;-71
2024/04/09 03:48:44;;;;;;;10.75;5.05;;;;;;;;;;5429099;26;19995;-71
2024/04/09 03:51:11;;;;;;;12.30;4.55;;;;;;;;;;5379714;26;20095;-69
2024/04/09 03:53:37;;;;;;;7.97;5.30;;;;;;;;;;5410431;26;20015;-69
2024/04/09 03:56:04;;;;;;;15.07;5.70;;;;;;;;;;5410680;26;20084;-68
2024/04/09 03:58:41;;;;;;;7.18;4.30;;;;;;;;;;5410574;26;20006;-68
2024/04/09 04:01:10;;;;;;;14.52;5.57;;;;;;;;;;5410598;26;20015;-68
2024/04/09 04:03:41;;;;;;;11.68;5.47;;;;;;;;;;5379175;26;20011;-71
2024/04/09 04:06:07;;;;;;;10.00;5.85;;;;;;;;;;5384214;26;19999;-70
2024/04/09 04:08:35;;;;;;;11.25;5.28;;;;;;;;;;5383036;26;20004;-69
2024/04/09 04:11:02;;;;;;;10.32;5.07;;;;;;;;;;5382775;26;20018;-67
2024/04/09 04:13:30;;;;;;;7.75;5.70;;;;;;;;;;5414213;26;20015;-69
2024/04/09 04:16:06;;;;;;;9.50;5.18;;;;;;;;;;5414455;26;20031;-69
2024/04/09 04:18:45;;;;;;;16.02;6.00;;;;;;;;;;5382633;26;20014;-72
2024/04/09 04:21:12;;;;;;;10.07;5.68;;;;;;;;;;5383318;26;19999;-69
2024/04/09 04:23:39;;;;;;;13.45;5.45;;;;;;;;;;5414176;26;20014;-69
2024/04/09 04:26:25;;;;;;;9.30;5.35;;;;;;;;;;5382740;26;20010;-70
2024/04/09 04:28:52;;;;;;;9.43;4.80;;;;;;;;;;5382884;26;20014;-71
2024/04/09 04:31:18;;;;;;;11.75;4.78;;;;;;;;;;5382457;26;20050;-69
2024/04/09 04:33:45;;;;;;;7.93;4.72;;;;;;;;;;5382770;26;20122;-70
2024/04/09 04:36:11;;;;;;;7.35;4.03;;;;;;;;;;5382353;26;20000;-69
2024/04/09 04:38:40;;;;;;;8.90;7.32;;;;;;;;;;5413724;26;20014;-71
2024/04/09 04:41:07;;;;;;;7.70;4.45;;;;;;;;;;5382552;26;20004;-69
2024/04/09 04:43:33;;;;;;;6.70;4.50;;;;;;;;;;5382273;26;19996;-69
2024/04/09 04:45:59;;;;;;;7.85;4.70;;;;;;;;;;5382339;26;20010;-70
2024/04/09 04:48:25;;;;;;;5.25;4.53;;;;;;;;;;5395315;26;20000;-70
2024/04/09 04:50:52;;;;;;;5.30;4.20;;;;;;;;;;5347276;26;20482;-68
2024/04/09 04:53:19;;;;;;;8.65;4.60;;;;;;;;;;5347123;26;20378;-71
2024/04/09 04:55:46;;;;;;;10.43;4.55;;;;;;;;;;5377730;26;20011;-68
2024/04/09 04:58:12;;;;;;;19.70;6.55;;;;;;;;;;5377974;26;20000;-67
2024/04/09 05:00:39;;;;;;;13.15;4.90;;;;;;;;;;5346221;26;20094;-71
2024/04/09 05:03:06;;;;;;;12.65;5.00;;;;;;;;;;5378770;26;20554;-69
2024/04/09 05:05:31;;;;;;;20.33;5.07;;;;;;;;;;5347857;26;20012;-69
2024/04/09 05:07:57;;;;;;;8.07;4.30;;;;;;;;;;5348487;26;20000;-67
2024/04/09 05:10:23;;;;;;;8.50;4.43;;;;;;;;;;5377909;26;20039;-69
2024/04/09 05:12:53;;;;;;;7.35;4.75;;;;;;;;;;5347533;26;20015;-70
2024/04/09 05:15:19;;;;;;;10.30;5.28;;;;;;;;;;5378053;26;20070;-69
2024/04/09 05:17:45;;;;;;;10.15;4.65;;;;;;;;;;5345822;26;20084;-70
2024/04/09 05:20:14;;;;;;;8.98;4.60;;;;;;;;;;5377674;26;20018;-68
2024/04/09 05:22:50;;;;;;;7.55;5.38;;;;;;;;;;5346714;26;20000;-69
2024/04/09 05:25:17;;;;;;;9.73;4.25;;;;;;;;;;5345791;26;19997;-70
2024/04/09 05:27:43;;;;;;;5.60;4.85;;;;;;;;;;5395954;26;20374;-68
2024/04/09 05:30:10;;;;;;;8.18;4.95;;;;;;;;;;5416364;26;20071;-71
2024/04/09 05:32:38;;;;;;;6.32;4.68;;;;;;;;;;5416072;26;20103;-69
2024/04/09 05:35:07;;;;;;;12.65;4.93;;;;;;;;;;5447788;26;20070;-69
2024/04/09 05:37:33;;;;;;;8.32;4.60;;;;;;;;;;5388125;26;20004;-68
2024/04/09 05:39:59;;;;;;;11.57;7.35;;;;;;;;;;5392124;26;20018;-70
2024/04/09 05:42:25;;;;;;;10.85;5.25;;;;;;;;;;5391302;26;20027;-68
2024/04/09 05:44:50;;;;;;;7.63;5.43;;;;;;;;;;5430055;26;19992;-68
2024/04/09 05:47:17;;;;;;;9.00;5.07;;;;;;;;;;5414048;26;20014;-69
2024/04/09 05:49:44;;;;;;;6.32;5.05;;;;;;;;;;5425966;26;19998;-68
2024/04/09 05:52:10;;;;;;;6.47;5.15;;;;;;;;;;5439037;26;20793;-68
2024/04/09 05:54:41;;;;;;;8.85;4.95;;;;;;;;;;5380553;26;19998;-71
2024/04/09 05:57:06;;;;;;;8.88;6.35;;;;;;;;;;5386406;26;20007;-69
2024/04/09 05:59:33;;;;;;;15.10;5.50;;;;;;;;;;5401213;26;20000;-71
2024/04/09 06:01:58;;;;;;;10.02;5.75;;;;;;;;;;5412775;26;20030;-71
2024/04/09 06:04:24;;;;;;;11.00;5.93;;;;;;;;;;5413517;26;20300;-69
2024/04/09 06:06:51;;;;;;;11.35;5.65;;;;;;;;;;5365271;26;20093;-69
2024/04/09 06:09:16;;;;;;;11.25;5.32;;;;;;;;;;5385862;26;20044;-70
2024/04/09 06:11:42;;;;;;;9.32;5.97;;;;;;;;;;5432499;26;20001;-70
2024/04/09 06:14:07;;;;;;;13.85;6.13;;;;;;;;;;5401884;26;20064;-71
2024/04/09 06:16:33;;;;;;;9.73;5.40;;;;;;;;;;5438384;26;20326;-70
2024/04/09 06:18:58;;;;;;;8.27;5.80;;;;;;;;;;5376236;26;20356;-68
2024/04/09 06:21:24;;;;;;;9.48;5.63;;;;;;;;;;5377427;26;20018;-70
2024/04/09 06:23:50;;;;;;;8.65;5.47;;;;;;;;;;5424192;26;20357;-68
2024/04/09 06:26:18;;;;;;;17.10;7.40;;;;;;;;;;5411654;26;20003;-70
2024/04/09 06:28:44;;;;;;;14.90;6.65;;;;;;;;;;5383590;26;20321;-69
2024/04/09 06:31:10;;;;;;;11.20;6.05;;;;;;;;;;5383358;26;20010;-69
2024/04/09 06:33:35;;;;;;;10.43;5.55;;;;;;;;;;5369169;26;20003;-70
2024/04/09 06:36:01;;;;;;;11.13;6.05;;;;;;;;;;5384018;26;19995;-68
2024/04/09 06:38:26;;;;;;;7.93;4.63;;;;;;;;;;5388754;26;20160;-69
2024/04/09 06:40:55;;;;;;;10.73;6.18;;;;;;;;;;5373680;26;20015;-71
2024/04/09 06:43:21;;;;;;;13.65;6.30;;;;;;;;;;5399354;26;20062;-70
2024/04/09 06:45:48;;;;;;;14.45;5.22;;;;;;;;;;5388424;26;19999;-69
2024/04/09 06:48:14;;;;;;;7.70;5.32;;;;;;;;;;5377824;26;20004;-69
2024/04/09 06:50:41;;;;;;;20.02;5.43;;;;;;;;;;5400639;26;20043;-69
2024/04/09 06:53:06;;;;;;;9.90;5.35;;;;;;;;;;5402727;26;19996;-69
2024/04/09 06:55:32;;;;;;;13.27;6.60;;;;;;;;;;5381905;26;20022;-68
2024/04/09 06:57:59;;;;;;;12.15;5.95;;;;;;;;;;5398258;26;20003;-69
2024/04/09 07:00:25;;;;;;;13.35;5.22;;;;;;;;;;5394417;26;19998;-70
2024/04/09 07:02:52;;;;;;;8.73;5.88;;;;;;;;;;5419735;26;20077;-69
2024/04/09 07:05:18;;;;;;;8.48;5.47;;;;;;;;;;5406030;26;20481;-70
2024/04/09 07:07:44;;;;;;;15.27;5.45;;;;;;;;;;5433413;26;20018;-70
2024/04/09 07:10:11;;;;;;;17.80;5.55;;;;;;;;;;5392071;26;20460;-71
2024/04/09 07:12:36;;;;;;;13.25;5.97;;;;;;;;;;5427613;26;20013;-74
2024/04/09 07:15:03;;;;;;;13.13;6.22;;;;;;;;;;5392765;26;20331;-71
2024/04/09 07:17:30;;;;;;;20.25;10.73;;;;;;;;;;5368105;26;20444;-72
2024/04/09 07:19:58;;;;;;;12.75;6.00;;;;;;;;;;5399608;26;20027;-70
2024/04/09 07:22:24;;;;;;;10.50;5.47;;;;;;;;;;5405945;26;20046;-70
2024/04/09 07:24:49;;;;;;;11.98;5.07;;;;;;;;;;5403906;26;20001;-70
2024/04/09 07:27:15;;;;;;;12.05;5.72;;;;;;;;;;5393534;26;20007;-71
2024/04/09 07:29:42;;;;;;;8.48;5.05;;;;;;;;;;5400720;26;20003;-71
2024/04/09 07:32:12;;;;;;;7.40;4.78;;;;;;;;;;5406542;26;20867;-71
2024/04/09 07:34:38;;;;;;;10.75;5.45;;;;;;;;;;5393112;26;20312;-70
2024/04/09 07:37:04;;;;;;;17.48;5.82;;;;;;;;;;5427277;26;20372;-74
2024/04/09 07:39:29;;;;;;;10.05;4.85;;;;;;;;;;5397321;26;20120;-71
2024/04/09 07:41:56;;;;;;;9.20;6.35;;;;;;;;;;5405133;26;20006;-69
2024/04/09 07:44:23;;;;;;;9.20;5.05;;;;;;;;;;5433299;26;20010;-71
2024/04/09 07:46:49;;;;;;;8.70;5.47;;;;;;;;;;5400128;26;20014;-71
2024/04/09 07:49:16;;;;;;;18.25;5.93;;;;;;;;;;5419086;26;20008;-70
2024/04/09 07:52:00;;;;;;;8.02;4.53;;;;;;;;;;5434326;25;2350134;-70
2024/04/09 07:54:26;;;;;;;9.20;4.38;;;;;;;;;;5455463;26;20439;-72
2024/04/09 07:56:52;;;;;;;10.20;5.05;;;;;;;;;;5461122;25;20009;-70
2024/04/09 07:59:18;;;;;;;9.00;4.65;;;;;;;;;;5459120;25;20004;-70
2024/04/09 08:01:44;;;;;;;11.32;4.70;;;;;;;;;;5460619;26;20001;-70
2024/04/09 08:04:09;;;;;;;10.85;5.28;;;;;;;;;;5454607;25;20387;-70
2024/04/09 08:06:35;;;;;;;11.60;3.85;;;;;;;;;;5487750;26;20013;-70
2024/04/09 08:09:04;;;;;;;9.15;3.90;;;;;;;;;;5458841;26;20009;-71
2024/04/09 08:11:30;;;;;;;13.52;5.47;;;;;;;;;;5451369;26;19997;-70
2024/04/09 08:13:56;;;;;;;10.73;4.63;;;;;;;;;;5462687;25;19998;-71
2024/04/09 08:16:25;;;;;;;8.43;4.30;;;;;;;;;;5461477;25;19998;-72
2024/04/09 08:18:50;;;;;;;15.48;5.20;;;;;;;;;;5494350;25;20006;-71
2024/04/09 08:21:16;;;;;;;10.55;3.90;;;;;;;;;;5495839;25;20013;-70
2024/04/09 08:24:07;;;;;;;15.10;4.57;;;;;;;;;;5451404;26;20006;-73
2024/04/09 08:26:36;;;;;;;11.68;3.45;;;;;;;;;;5489109;25;20042;-70
2024/04/09 08:29:04;;;;;;;23.30;6.60;;;;;;;;;;5447494;26;20005;-72
2024/04/09 08:31:33;;;;;;;6.47;3.88;;;;;;;;;;5463729;26;20006;-71
2024/04/09 08:34:00;;;;;;;10.75;4.32;;;;;;;;;;5456326;26;20010;-72
2024/04/09 08:36:27;;;;;;;12.77;4.50;;;;;;;;;;5483834;26;20013;-70
2024/04/09 08:38:53;;;;;;;14.75;4.85;;;;;;;;;;5456588;26;20010;-70
2024/04/09 08:41:20;;;;;;;5.88;3.42;;;;;;;;;;5461506;26;20001;-70
2024/04/09 08:43:48;;;;;;;18.00;5.22;;;;;;;;;;5460188;26;20017;-71
2024/04/09 08:46:15;;;;;;;9.95;4.03;;;;;;;;;;5483280;26;20014;-72
2024/04/09 08:48:43;;;;;;;5.95;4.15;;;;;;;;;;5492462;25;20066;-71
2024/04/09 08:51:12;;;;;;;6.35;3.45;;;;;;;;;;5426272;26;19990;-70
2024/04/09 08:53:38;;;;;;;4.13;3.58;;;;;;;;;;5450848;26;20003;-70
2024/04/09 08:56:05;;;;;;;6.60;3.85;;;;;;;;;;5459650;26;19997;-71
2024/04/09 08:58:30;;;;;;;8.85;3.65;;;;;;;;;;5467173;25;20007;-72
2024/04/09 09:00:58;;;;;;;5.60;3.50;;;;;;;;;;5468866;26;20042;-70
2024/04/09 09:03:24;;;;;;;5.82;3.08;;;;;;;;;;5436941;25;20000;-70
2024/04/09 09:05:59;;;;;;;5.88;3.55;;;;;;;;;;5452538;26;19998;-69
2024/04/09 09:08:26;;;;;;;16.60;4.85;;;;;;;;;;5450727;26;20009;-71
2024/04/09 09:10:55;;;;;;;7.80;3.90;;;;;;;;;;5437370;26;20363;-70
2024/04/09 09:13:21;;;;;;;12.65;4.03;;;;;;;;;;5429188;26;20440;-71
2024/04/09 09:15:55;;;;;;;19.75;4.70;;;;;;;;;;5435338;26;20017;-70
2024/04/09 09:18:24;;;;;;;5.03;2.90;;;;;;;;;;5407000;26;20039;-72
2024/04/09 09:20:59;;;;;;;10.90;3.78;;;;;;;;;;5430281;26;20373;-71
2024/04/09 09:23:25;;;;;;;11.13;2.97;;;;;;;;;;5422754;26;20018;-69
2024/04/09 09:25:52;;;;;;;18.65;9.13;;;;;;;;;;5449119;26;20003;-69
2024/04/09 09:28:22;;;;;;;10.55;2.90;;;;;;;;;;5416441;26;20327;-69
2024/04/09 09:30:48;;;;;;;6.63;3.58;;;;;;;;;;5443220;26;20005;-69
2024/04/09 09:33:31;;;;;;;20.08;10.10;;;;;;;;;;5429729;26;20000;-70
2024/04/09 09:35:57;;;;;;;8.70;4.35;;;;;;;;;;5448460;26;19998;-69
2024/04/09 09:38:25;;;;;;;14.55;4.07;;;;;;;;;;5428054;26;19999;-72
2024/04/09 09:40:51;;;;;;;6.65;2.90;;;;;;;;;;5442247;26;20006;-71
2024/04/09 09:43:22;;;;;;;18.30;4.05;;;;;;;;;;5432356;26;20007;-69
2024/04/09 09:45:49;;;;;;;9.35;4.55;;;;;;;;;;5434219;26;20003;-69
2024/04/09 09:48:20;;;;;;;14.20;4.40;;;;;;;;;;5448498;26;19998;-68
2024/04/09 09:50:46;;;;;;;6.72;3.35;;;;;;;;;;5441694;26;20002;-72
2024/04/09 09:53:12;;;;;;;10.50;3.53;;;;;;;;;;5433581;26;20053;-69
2024/04/09 09:55:41;;;;;;;5.47;2.60;;;;;;;;;;5450478;26;19994;-70
2024/04/09 09:58:11;;;;;;;33.55;8.30;;;;;;;;;;5402206;26;20462;-69
2024/04/09 10:00:38;;;;;;;5.03;2.78;;;;;;;;;;5420936;26;19995;-71
2024/04/09 10:03:05;;;;;;;8.82;3.15;;;;;;;;;;5446783;26;20002;-69
2024/04/09 10:05:37;;;;;;;4.55;2.83;;;;;;;;;;5458333;26;19994;-69
2024/04/09 10:08:14;;;;;;;14.38;3.63;;;;;;;;;;5468158;26;20443;-68
2024/04/09 10:10:42;;;;;;;8.10;2.72;;;;;;;;;;5433411;26;19998;-68
2024/04/09 10:13:08;;;;;;;7.95;3.03;;;;;;;;;;5457209;26;20014;-70
2024/04/09 10:15:34;;;;;;;7.53;3.10;;;;;;;;;;5453401;26;20391;-68
2024/04/09 10:18:04;;;;;;;4.18;2.70;;;;;;;;;;5448696;26;20030;-69
2024/04/09 10:20:31;;;;;;;7.63;3.40;;;;;;;;;;5432301;26;20007;-70
2024/04/09 10:23:06;;;;;;;10.93;3.92;;;;;;;;;;5424766;26;20011;-72
2024/04/09 10:25:39;;;;;;;9.07;3.13;;;;;;;;;;5432601;26;20019;-72
2024/04/09 10:28:18;;;;;;;7.72;3.00;;;;;;;;;;5446138;26;20002;-71
2024/04/09 10:30:45;;;;;;;7.72;3.40;;;;;;;;;;5419139;26;20462;-71
2024/04/09 10:33:12;;;;;;;15.50;5.28;;;;;;;;;;5438605;26;20371;-70
2024/04/09 10:35:45;;;;;;;10.65;3.35;;;;;;;;;;5430434;26;19999;-70
2024/04/09 10:38:11;;;;;;;6.88;2.72;;;;;;;;;;5439293;26;19998;-69
2024/04/09 10:40:37;;;;;;;6.40;3.28;;;;;;;;;;5435147;26;20295;-72
2024/04/09 10:43:08;;;;;;;16.85;4.00;;;;;;;;;;5439831;26;20075;-71
2024/04/09 10:45:36;;;;;;;4.90;2.53;;;;;;;;;;5437050;26;20039;-71
2024/04/09 10:48:03;;;;;;;10.65;3.85;;;;;;;;;;5435178;26;20002;-69
2024/04/09 10:50:33;;;;;;;3.30;2.70;;;;;;;;;;5438522;26;19999;-71
2024/04/09 10:52:59;;;;;;;6.75;4.03;;;;;;;;;;5442816;26;20688;-72
2024/04/09 10:55:24;;;;;;;4.10;2.80;;;;;;;;;;5416209;26;19991;-69
2024/04/09 10:57:51;;;;;;;11.40;3.83;;;;;;;;;;5440360;26;20026;-70
2024/04/09 11:00:18;;;;;;;18.20;5.15;;;;;;;;;;5435722;26;20475;-70
2024/04/09 11:02:45;;;;;;;8.88;3.30;;;;;;;;;;5444912;26;20014;-70
2024/04/09 11:05:12;;;;;;;6.93;3.40;;;;;;;;;;5438057;26;20027;-69
2024/04/09 11:07:42;;;;;;;6.88;3.13;;;;;;;;;;5450509;26;20021;-70
2024/04/09 11:10:14;;;;;;;11.57;3.08;;;;;;;;;;5452723;26;20012;-69
2024/04/09 11:12:51;;;;;;;14.85;4.78;;;;;;;;;;5461052;26;19994;-71
2024/04/09 11:15:17;;;;;;;4.97;3.20;;;;;;;;;;5444094;26;20026;-70
2024/04/09 11:17:43;;;;;;;6.20;2.90;;;;;;;;;;5442565;26;20010;-72
2024/04/09 11:20:11;;;;;;;7.55;3.70;;;;;;;;;;5471171;26;20017;-70
2024/04/09 11:22:43;;;;;;;9.20;3.40;;;;;;;;;;5471363;26;20015;-70
2024/04/09 11:25:12;;;;;;;6.47;3.55;;;;;;;;;;5467196;26;20580;-71
2024/04/09 11:27:42;;;;;;;5.95;3.10;;;;;;;;;;5433939;26;20104;-71
2024/04/09 11:30:09;;;;;;;4.85;3.03;;;;;;;;;;5426129;26;20007;-71
2024/04/09 11:32:38;;;;;;;5.18;3.20;;;;;;;;;;5432480;26;20310;-69
2024/04/09 11:35:21;;;;;;;4.35;3.17;;;;;;;;;;5433734;26;19995;-72
2024/04/09 11:37:51;;;;;;;8.13;2.95;;;;;;;;;;5425566;26;20130;-68
2024/04/09 11:40:20;;;;;;;7.50;3.15;;;;;;;;;;5428150;26;20777;-71
2024/04/09 11:42:48;;;;;;;8.10;3.40;;;;;;;;;;5440211;26;20320;-69
2024/04/09 11:45:26;;;;;;;10.82;3.65;;;;;;;;;;5465600;26;20349;-69
2024/04/09 11:47:52;;;;;;;8.30;2.90;;;;;;;;;;5431143;26;20011;-71
2024/04/09 11:50:18;;;;;;;8.07;2.80;;;;;;;;;;5450096;26;20006;-70
2024/04/09 11:52:45;;;;;;;10.48;3.38;;;;;;;;;;5478539;26;20071;-68
2024/04/09 11:55:11;;;;;;;8.45;3.53;;;;;;;;;;5470555;26;20004;-70
2024/04/09 11:57:38;;;;;;;9.02;2.90;;;;;;;;;;5423943;26;20073;-71
2024/04/09 12:00:04;;;;;;;6.28;3.20;;;;;;;;;;5480862;26;20446;-70
2024/04/09 12:02:31;;;;;;;4.60;2.67;;;;;;;;;;5443788;26;19997;-70
2024/04/09 12:04:56;;;;;;;10.45;3.03;;;;;;;;;;5455924;26;20109;-69
2024/04/09 12:07:22;;;;;;;9.27;3.03;;;;;;;;;;5439545;26;20006;-69
2024/04/09 12:09:48;;;;;;;12.65;2.60;;;;;;;;;;5460626;26;20508;-68
2024/04/09 12:12:15;;;;;;;11.25;2.97;;;;;;;;;;5422888;26;20013;-70
2024/04/09 12:14:42;;;;;;;5.53;2.15;;;;;;;;;;5448281;26;20009;-68
2024/04/09 12:17:08;;;;;;;10.98;3.75;;;;;;;;;;5445797;26;20006;-71
2024/04/09 12:19:35;;;;;;;13.70;2.92;;;;;;;;;;5436186;26;19998;-73
2024/04/09 12:22:07;;;;;;;8.02;3.38;;;;;;;;;;5476558;26;20070;-71
2024/04/09 12:24:32;;;;;;;3.58;2.35;;;;;;;;;;5441486;26;20015;-70
2024/04/09 12:26:58;;;;;;;8.10;3.63;;;;;;;;;;5445003;26;20384;-71
2024/04/09 12:29:24;;;;;;;13.60;3.40;;;;;;;;;;5468971;26;19997;-70
2024/04/09 12:31:52;;;;;;;7.70;3.00;;;;;;;;;;5443910;26;20001;-70
2024/04/09 12:34:17;;;;;;;10.90;2.95;;;;;;;;;;5445422;26;19998;-71
2024/04/09 12:36:44;;;;;;;13.60;4.15;;;;;;;;;;5448140;26;20102;-68
2024/04/09 12:39:10;;;;;;;13.45;5.20;;;;;;;;;;5438648;26;20021;-71
2024/04/09 12:41:37;;;;;;;12.77;3.50;;;;;;;;;;5436102;26;20035;-70
2024/04/09 12:44:03;;;;;;;8.88;2.72;;;;;;;;;;5417413;26;20005;-71
2024/04/09 12:46:32;;;;;;;9.15;3.42;;;;;;;;;;5464378;26;20342;-69
2024/04/09 12:48:58;;;;;;;11.30;3.80;;;;;;;;;;5441461;26;20014;-70
2024/04/09 12:51:24;;;;;;;9.63;2.65;;;;;;;;;;5486813;26;20335;-67
2024/04/09 12:53:49;;;;;;;7.00;2.38;;;;;;;;;;5481763;26;20436;-71
2024/04/09 12:56:15;;;;;;;10.82;5.00;;;;;;;;;;5469128;26;20006;-70
2024/04/09 12:58:40;;;;;;;7.75;2.60;;;;;;;;;;5429033;26;20010;-70
2024/04/09 13:01:09;;;;;;;16.77;3.17;;;;;;;;;;5468566;26;20052;-70
2024/04/09 13:03:38;;;;;;;13.27;3.42;;;;;;;;;;5477863;26;20665;-71
2024/04/09 13:06:04;;;;;;;10.13;2.78;;;;;;;;;;5477357;26;19994;-72
2024/04/09 13:08:31;;;;;;;5.20;2.20;;;;;;;;;;5434160;26;19998;-69
2024/04/09 13:10:57;;;;;;;8.80;2.78;;;;;;;;;;5452991;26;20012;-70
2024/04/09 13:13:23;;;;;;;8.38;2.90;;;;;;;;;;5435705;26;20010;-70
2024/04/09 13:15:49;;;;;;;5.10;2.10;;;;;;;;;;5444180;26;21379;-71
2024/04/09 13:18:15;;;;;;;11.57;2.60;;;;;;;;;;5444684;26;20016;-71
2024/04/09 13:20:41;;;;;;;7.20;2.65;;;;;;;;;;5448726;26;19994;-71
2024/04/09 13:23:08;;;;;;;23.08;6.00;;;;;;;;;;5495421;26;20050;-69
2024/04/09 13:25:37;;;;;;;11.73;3.28;;;;;;;;;;5461690;26;19998;-69
2024/04/09 13:28:04;;;;;;;20.33;2.88;;;;;;;;;;5495019;26;20001;-69
2024/04/09 13:30:30;;;;;;;15.20;3.72;;;;;;;;;;5467292;26;20449;-70
2024/04/09 13:32:56;;;;;;;6.20;2.20;;;;;;;;;;5445684;26;20002;-69
2024/04/09 13:35:21;;;;;;;9.32;2.40;;;;;;;;;;5507931;26;19998;-71
2024/04/09 13:37:47;;;;;;;3.33;2.30;;;;;;;;;;5464298;26;20031;-69
2024/04/09 13:40:13;;;;;;;7.22;2.55;;;;;;;;;;5447384;26;20035;-69
2024/04/09 13:42:43;;;;;;;12.65;3.65;;;;;;;;;;5485191;26;20010;-70
2024/04/09 13:45:09;;;;;;;6.70;2.72;;;;;;;;;;5452466;26;19999;-70
2024/04/09 13:47:35;;;;;;;8.00;2.22;;;;;;;;;;5465853;26;19997;-68
2024/04/09 13:50:09;;;;;;;8.88;3.28;;;;;;;;;;5484449;26;20092;-70
2024/04/09 13:52:37;;;;;;;7.53;2.20;;;;;;;;;;5441941;26;20336;-69
2024/04/09 13:55:05;;;;;;;13.93;3.22;;;;;;;;;;5487977;26;19998;-70
2024/04/09 13:57:32;;;;;;;12.05;2.88;;;;;;;;;;5433672;26;20006;-69
2024/04/09 13:59:58;;;;;;;9.73;2.67;;;;;;;;;;5457153;26;19998;-68
2024/04/09 14:02:24;;;;;;;17.17;3.05;;;;;;;;;;5431685;26;20006;-68
2024/04/09 14:04:51;;;;;;;10.07;2.42;;;;;;;;;;5475069;26;19998;-71
2024/04/09 14:07:17;;;;;;;14.13;3.38;;;;;;;;;;5466788;26;19997;-71
2024/04/09 14:09:44;;;;;;;14.30;4.75;;;;;;;;;;5437543;26;20010;-72
2024/04/09 14:12:11;;;;;;;8.93;2.60;;;;;;;;;;5438545;26;20128;-70
2024/04/09 14:14:38;;;;;;;9.65;2.85;;;;;;;;;;5438949;26;20050;-70
2024/04/09 14:17:08;;;;;;;8.63;2.58;;;;;;;;;;5428122;26;20001;-71
2024/04/09 14:19:35;;;;;;;7.65;2.72;;;;;;;;;;5481505;26;19997;-70
2024/04/09 14:22:01;;;;;;;6.45;2.50;;;;;;;;;;5458378;26;19998;-68
2024/04/09 14:24:27;;;;;;;10.77;3.38;;;;;;;;;;5474403;26;20055;-68
2024/04/09 14:26:52;;;;;;;10.02;2.83;;;;;;;;;;5442475;26;20387;-70
2024/04/09 14:29:18;;;;;;;13.25;2.88;;;;;;;;;;5426329;26;20044;-70
2024/04/09 14:31:44;;;;;;;8.18;3.03;;;;;;;;;;5445740;26;20359;-71
2024/04/09 14:34:10;;;;;;;11.90;2.95;;;;;;;;;;5447206;26;20009;-68
2024/04/09 14:36:37;;;;;;;10.95;2.30;;;;;;;;;;5514117;26;20025;-69
2024/04/09 14:39:03;;;;;;;13.02;2.80;;;;;;;;;;5490328;26;19994;-71